Xenia, Illinois
Current Conditions -  °F | °C
As of 4:35 AM on Monday 20 Oct 2014 (Local Time) from KFOA Reporting Station
Clear Clear  
Wind Chill: 51°   Ceiling: Unl
Heat Index: 51°   Visibility: 10mi
Dew Point: 47°   Wind: 8mph
Humidity: 87%   Direction: 210°SSW
Pressure: 29.99"   Gusts: NA
Location:  38.64°N, 88.63°W
Report Text: KFOA 200935Z AUTO 21007KT 10SM CLR 10/08 A2999 RMK AO2 T01040084
Loading
Personal Weather Stations






























Interactive Weather Map
Tropical Storm Tracking
New forecast layout! Learn more

10-Day Weather Forecast

Advertisements
Track Severe Weather on mobile